createdAt,value
2023-01-11T00:02:37.200Z,8.1
2023-01-11T00:12:37.855Z,8.2
2023-01-11T00:32:39.489Z,8.5
2023-01-11T00:52:40.744Z,8.8
2023-01-11T01:02:40.957Z,9
2023-01-11T01:03:02.829Z,9
2023-01-11T01:12:47.080Z,9
2023-01-11T01:22:47.985Z,9.1
2023-01-11T01:32:48.608Z,9.3
2023-01-11T01:42:49.369Z,9.5
2023-01-11T01:52:50.002Z,9.7
2023-01-11T02:02:50.760Z,9.8
2023-01-11T02:12:51.472Z,9.7
2023-01-11T02:22:52.052Z,9.8
2023-01-11T02:32:52.907Z,9.6
2023-01-11T02:42:53.417Z,9.5
2023-01-11T02:52:54.024Z,9.4
2023-01-11T03:02:54.991Z,9.3
2023-01-11T03:12:55.763Z,9.2
2023-01-11T03:22:56.231Z,9
2023-01-11T03:32:57.286Z,8.9
2023-01-11T03:42:57.699Z,9
2023-01-11T04:02:58.970Z,9
2023-01-11T04:12:59.338Z,9.1
2023-01-11T04:33:00.894Z,9.3
2023-01-11T04:43:01.391Z,9.4
2023-01-11T04:53:01.738Z,9.4
2023-01-11T05:03:02.448Z,9.5
2023-01-11T05:23:03.620Z,9.8
2023-01-11T05:33:04.637Z,10
2023-01-11T05:53:06.137Z,10.1
2023-01-11T06:03:06.508Z,10.1
2023-01-11T06:23:07.522Z,10.2
2023-01-11T06:33:08.271Z,10.2
2023-01-11T06:43:08.935Z,10.2
2023-01-11T06:53:09.141Z,10.2
2023-01-11T07:03:10.191Z,10.3
2023-01-11T07:13:10.846Z,10.4
2023-01-11T07:23:11.843Z,10.4
2023-01-11T07:33:12.716Z,10.5
2023-01-11T07:43:13.369Z,10.5
2023-01-11T07:53:13.543Z,10.6
2023-01-11T08:03:13.960Z,10.6
2023-01-11T08:33:15.405Z,10.7
2023-01-11T08:43:16.120Z,10.8
2023-01-11T09:03:17.722Z,10.6
2023-01-11T09:13:18.088Z,10.4
2023-01-11T09:23:18.920Z,10.2
2023-01-11T09:43:20.605Z,10.1
2023-01-11T09:53:21.466Z,10
2023-01-11T11:13:26.768Z,10
2023-01-11T11:33:28.755Z,10.1
2023-01-11T11:43:28.886Z,10
2023-01-11T11:53:29.418Z,10.3
2023-01-11T12:03:29.674Z,10.3
2023-01-11T12:23:30.697Z,10.1
2023-01-11T12:33:30.797Z,10.2
2023-01-11T12:43:31.603Z,10.4
2023-01-11T12:53:32.112Z,10.6
2023-01-11T13:03:32.538Z,10.8
2023-01-11T13:13:33.254Z,10.9
2023-01-11T13:23:33.756Z,10.9
2023-01-11T13:33:34.169Z,10.6
2023-01-11T13:43:34.581Z,10.7
2023-01-11T13:53:35.147Z,10.5
2023-01-11T14:03:35.261Z,10.4
2023-01-11T14:23:36.347Z,10.3
2023-01-11T14:33:36.646Z,10.2
2023-01-11T14:43:37.478Z,10.1
2023-01-11T14:53:38.368Z,10.2
2023-01-11T15:03:38.978Z,10.2
2023-01-11T15:23:40.194Z,10
2023-01-11T15:33:40.832Z,10
2023-01-11T15:43:41.459Z,9.8
2023-01-11T15:53:42.387Z,9.7
2023-01-11T16:03:42.842Z,9.6
2023-01-11T16:13:43.027Z,9.5
2023-01-11T16:23:43.963Z,9.4
2023-01-11T16:33:44.199Z,9.4
2023-01-11T16:43:44.494Z,9.3
2023-01-11T16:53:45.282Z,9.2
2023-01-11T17:03:45.908Z,9.3
2023-01-11T17:13:46.398Z,9.4
2023-01-11T17:23:46.252Z,9.4
2023-01-11T17:33:47.282Z,9.4
2023-01-11T17:43:47.575Z,9.5
2023-01-11T17:53:47.987Z,9.4
2023-01-11T18:03:48.821Z,9.3
2023-01-11T18:23:50.442Z,9.4
2023-01-11T18:43:51.885Z,9.4
2023-01-11T18:53:52.611Z,9.4
2023-01-11T19:03:53.143Z,9.4
2023-01-11T19:13:53.375Z,9.3
2023-01-11T19:23:53.815Z,9.3
2023-01-11T19:33:54.524Z,9.2
2023-01-11T19:43:55.077Z,9.1
2023-01-11T19:53:55.315Z,9.1
2023-01-11T20:03:56.023Z,9.1
2023-01-11T20:13:56.114Z,9
2023-01-11T20:23:56.997Z,9
2023-01-11T20:33:57.332Z,9
2023-01-11T20:43:57.451Z,9
2023-01-11T20:53:58.111Z,9.2
2023-01-11T21:13:59.137Z,9.3
2023-01-11T21:34:00.183Z,8.6
2023-01-11T21:44:00.704Z,8.3
2023-01-11T21:54:01.426Z,8.2
2023-01-11T22:04:02.319Z,8.4
2023-01-11T22:14:02.926Z,8.4
2023-01-11T22:24:03.908Z,8.8
2023-01-11T22:34:04.990Z,8.9
2023-01-11T22:44:06.044Z,9
2023-01-11T22:54:06.473Z,9.2
2023-01-11T23:04:07.294Z,9.2
2023-01-11T23:14:07.930Z,9.3
2023-01-11T23:24:08.903Z,9.2
2023-01-11T23:34:09.349Z,9
2023-01-11T23:54:11.318Z,8.7
